Latest Weather Observations for Double Island Point

IDQ60801

Issued at 8:42 pm EST Monday 10 December 2018 (issued every 10 minutes, with the page automatically refreshed every 10 minutes)

About weather observations | Map of weather stations | Latest weather observations for QLD | Other Formats
Station Details ID: 040068 Name: DOUBLE ISLAND POINT LIGHTHOUSE Lat: -25.93 Lon: 153.19 Height: 95.64 m
Data from the previous 72 hours. | See also: Recent months at Double Island Point
Date/Time
EST
Temp
°C
App
Temp
°C
Dew
Point
°C
Rel
Hum
%
Delta-T
°C
Wind Press
QNH
hPa
Press
MSL
hPa
Rain since
9am
mm
Dir  Spd
km/h
Gust
km/h
Spd
kts
Gust
kts
10/08:30pm 23.2 22.0 19.2 78 2.6 ESE 24 28 13 15 1015.9 1015.4 0.0
10/08:00pm 23.3 21.7 19.2 78 2.6 E 26 30 14 16 1015.7 1015.2 0.0
10/07:30pm 23.3 21.6 19.0 77 2.7 E 26 30 14 16 1015.3 1014.8 0.0
10/07:00pm 23.5 21.8 19.0 76 2.9 E 26 30 14 16 1015.0 1014.5 0.0
10/06:30pm 23.7 22.5 19.2 76 2.9 E 24 28 13 15 1014.7 1014.2 0.0
10/06:00pm 24.1 22.4 19.0 73 3.3 E 26 28 14 15 1014.5 1014.0 0.0
10/05:30pm 24.2 23.3 19.1 73 3.3 ESE 22 26 12 14 1014.4 1013.9 0.0
10/05:00pm 24.7 24.2 19.1 71 3.6 ESE 20 26 11 14 1014.5 1014.0 0.0
10/04:30pm 24.6 24.2 19.0 71 3.6 ESE 19 22 10 12 1014.3 1013.8 0.0
10/04:00pm 25.5 25.6 19.9 71 3.6 ESE 19 22 10 12 1014.2 1013.7 0.0
10/03:30pm 26.0 25.6 19.4 67 4.3 E 20 22 11 12 1014.3 1013.8 0.0
10/03:00pm 26.3 26.1 19.7 67 4.3 ESE 20 24 11 13 1014.4 1013.9 0.0
10/02:30pm 26.9 27.0 20.3 67 4.3 E 20 24 11 13 1014.6 1014.1 0.0
10/02:00pm 27.2 27.5 20.3 66 4.5 E 19 22 10 12 1014.7 1014.2 0.0
10/01:30pm 27.1 27.4 20.4 66 4.4 E 19 20 10 11 1015.0 1014.5 0.0
10/01:00pm 27.1 27.7 20.2 66 4.5 E 17 20 9 11 1015.0 1014.5 0.0
10/12:30pm 26.8 26.8 19.7 65 4.6 E 19 20 10 11 1015.2 1014.7 0.0
10/12:00pm 28.5 28.7 20.2 60 5.5 E 19 22 10 12 1015.3 1014.8 0.0
10/11:30am 27.5 27.5 20.1 64 4.9 E 20 26 11 14 1015.5 1015.0 0.0
10/11:00am 27.9 28.3 21.0 66 4.6 E 20 24 11 13 1015.6 1015.1 0.0
10/10:30am 27.4 27.3 20.0 64 4.8 E 20 24 11 13 1015.8 1015.3 0.0
10/10:00am 26.7 27.0 20.5 69 4.1 ESE 19 22 10 12 1016.0 1015.5 0.0
10/09:30am 27.0 26.8 20.6 68 4.2 E 22 26 12 14 1016.0 1015.5 0.0
10/09:00am 26.6 26.3 21.1 72 3.6 ESE 24 28 13 15 1016.0 1015.5 0.0
10/08:30am 26.2 24.5 19.8 68 4.2 E 28 32 15 17 1015.8 1015.3 0.0
10/08:00am 26.0 24.3 19.9 69 4.0 E 28 32 15 17 1015.6 1015.1 0.0
10/07:30am 25.3 23.4 20.1 73 3.4 E 30 33 16 18 1015.5 1015.0 0.0
10/07:00am 24.8 22.6 20.3 76 2.9 E 32 35 17 19 1015.3 1014.8 0.0
10/06:30am 24.2 22.0 20.3 79 2.5 E 32 35 17 19 1015.2 1014.7 0.0
10/06:00am 23.6 21.1 19.7 79 2.5 E 32 35 17 19 1014.9 1014.4 0.0
10/05:30am 23.1 20.8 20.1 83 1.9 E 32 35 17 19 1014.6 1014.1 0.0
10/05:00am 22.5 19.8 19.3 82 2.0 ESE 32 35 17 19 1014.4 1013.9 0.0
10/04:30am 22.5 19.1 19.1 81 2.2 E 35 37 19 20 1014.2 1013.7 0.0
10/04:00am 22.5 19.9 19.9 85 1.7 ESE 33 39 18 21 1013.8 1013.3 0.0
10/03:30am 22.5 20.4 19.7 84 1.8 ESE 30 33 16 18 1014.2 1013.7 0.0
10/03:00am 22.0 18.0 18.6 81 2.1 E 37 46 20 25 1014.2 1013.7 0.0
10/02:40am 22.3 20.5 19.5 84 1.8 ESE 28 43 15 23 1014.2 1013.7 0.0
10/02:30am 22.1 22.1 20.2 89 1.2 SE 20 24 11 13 1014.4 1013.9 0.0
10/02:00am 22.3 20.6 19.7 85 1.7 ESE 28 33 15 18 1014.7 1014.2 0.0
10/01:30am 22.4 20.9 19.4 83 1.9 ESE 26 30 14 16 1015.1 1014.6 0.0
10/01:00am 22.6 21.2 19.6 83 1.9 ESE 26 32 14 17 1015.5 1015.0 0.0
10/12:30am 22.5 20.2 19.3 82 2.0 ESE 30 32 16 17 1015.8 1015.3 0.0
10/12:00am 22.6 19.8 19.4 82 2.0 ESE 33 39 18 21 1016.1 1015.6 0.0
 
Date/Time
EST
Temp
°C
App
Temp
°C
Dew
Point
°C
Rel
Hum
%
Delta-T
°C
Wind Press
QNH
hPa
Press
MSL
hPa
Rain since
9am
mm
Dir  Spd
km/h
Gust
km/h
Spd
kts
Gust
kts
09/11:30pm 22.7 20.0 19.3 81 2.2 ESE 32 35 17 19 1016.1 1015.6 0.0
09/11:00pm 22.6 20.0 18.6 78 2.5 ESE 30 35 16 19 1016.1 1015.6 0.0
09/10:30pm 22.8 20.1 19.2 80 2.3 ESE 32 35 17 19 1016.3 1015.8 0.0
09/10:00pm 22.8 19.9 18.8 78 2.5 ESE 32 37 17 20 1016.6 1016.1 0.0
09/09:30pm 22.6 20.6 19.2 81 2.2 ESE 28 30 15 16 1016.7 1016.2 0.0
09/09:00pm 22.7 20.6 18.9 79 2.4 SE 28 33 15 18 1016.6 1016.1 0.0
09/08:30pm 22.8 20.7 19.0 79 2.4 SE 28 35 15 19 1016.6 1016.1 0.0
09/08:00pm 22.8 20.0 19.0 79 2.4 SE 32 35 17 19 1016.6 1016.1 0.0
09/07:30pm 22.9 20.0 18.9 78 2.5 SE 32 35 17 19 1016.7 1016.2 0.0
09/07:00pm 22.9 20.0 18.9 78 2.5 SE 32 35 17 19 1016.5 1016.0 0.0
09/06:30pm 22.9 20.3 18.7 77 2.7 SE 30 35 16 19 1016.5 1016.0 0.0
09/06:00pm 23.1 20.7 19.1 78 2.5 SE 30 35 16 19 1016.3 1015.8 0.0
09/05:30pm 23.2 20.0 18.7 76 2.9 SE 33 37 18 20 1015.9 1015.4 0.0
09/05:00pm 23.4 20.4 18.7 75 3.0 SE 32 35 17 19 1015.7 1015.2 0.0
09/04:30pm 23.9 21.1 19.0 74 3.1 SE 32 35 17 19 1015.4 1014.9 0.0
09/04:00pm 24.0 21.4 18.6 72 3.4 SE 30 33 16 18 1015.4 1014.9 0.0
09/03:30pm 24.6 22.1 18.8 70 3.7 SE 30 35 16 19 1015.2 1014.7 0.0
09/03:00pm 24.9 22.6 18.4 67 4.1 SE 28 32 15 17 1015.3 1014.8 0.0
09/02:30pm 24.6 22.1 18.8 70 3.7 ESE 30 35 16 19 1015.5 1015.0 0.0
09/02:00pm 25.7 23.2 18.9 66 4.4 ESE 30 35 16 19 1015.7 1015.2 0.0
09/01:30pm 25.6 23.2 18.3 64 4.6 ESE 28 35 15 19 1016.1 1015.6 0.0
09/01:00pm 25.5 22.8 18.4 65 4.5 ESE 30 33 16 18 1016.3 1015.8 0.0
09/12:30pm 25.8 23.1 18.5 64 4.7 ESE 30 35 16 19 1016.6 1016.1 0.0
09/12:00pm 26.0 22.6 18.2 62 4.9 ESE 33 37 18 20 1016.8 1016.3 0.0
09/11:30am 25.8 23.0 19.0 66 4.4 ESE 32 35 17 19 1017.0 1016.5 0.0
09/11:00am 26.0 23.1 19.2 66 4.4 ESE 33 39 18 21 1017.2 1016.7 0.0
09/10:30am 25.9 22.6 19.3 67 4.3 ESE 35 39 19 21 1017.1 1016.6 0.0
09/10:00am 25.8 22.8 19.0 66 4.4 E 33 39 18 21 1017.2 1016.7 0.0
09/09:30am 25.7 22.4 19.3 67 4.1 E 35 41 19 22 1017.3 1016.8 0.0
09/09:00am 25.4 21.5 19.5 70 3.8 E 39 46 21 25 1017.0 1016.5 0.4
09/08:30am 24.9 20.7 18.8 69 3.9 ESE 39 46 21 25 1016.9 1016.4 0.4
09/08:00am 24.6 20.4 18.8 70 3.7 E 39 46 21 25 1016.9 1016.4 0.4
09/07:30am 24.4 20.7 19.2 73 3.3 E 37 43 20 23 1016.9 1016.4 0.4
09/07:00am 23.9 21.6 20.2 80 2.4 ESE 32 39 17 21 1016.8 1016.3 0.4
09/06:30am 22.3 19.2 18.9 81 2.2 ESE 33 41 18 22 1016.6 1016.1 0.4
09/06:00am 22.5 19.7 19.1 81 2.2 ESE 32 35 17 19 1016.5 1016.0 0.4
09/05:30am 22.2 18.4 18.2 78 2.5 ESE 35 43 19 23 1016.3 1015.8 0.4
09/05:00am 22.0 19.0 19.0 83 1.9 ESE 33 39 18 21 1016.0 1015.5 0.4
09/04:30am 21.6 19.0 19.5 88 1.3 SE 32 35 17 19 1015.9 1015.4 0.4
09/04:00am 21.3 18.2 18.9 86 1.5 SE 33 39 18 21 1015.7 1015.2 0.4
09/03:30am 21.6 18.3 18.4 82 2.0 ESE 33 41 18 22 1015.6 1015.1 0.4
09/03:00am 21.4 17.4 19.3 88 1.3 ESE 39 48 21 26 1015.8 1015.3 0.4
09/02:30am 21.6 19.4 19.5 88 1.3 SE 30 35 16 19 1016.1 1015.6 0.4
09/02:00am 20.9 18.3 19.4 91 1.0 SE 32 46 17 25 1016.2 1015.7 0.4
09/01:30am 21.7 19.1 18.7 83 1.9 ESE 30 39 16 21 1016.6 1016.1 0.2
09/01:00am 21.9 17.6 18.7 82 2.0 SE 39 50 21 27 1017.0 1016.5 0.2
09/12:30am 21.6 16.1 18.0 80 2.2 SE 44 54 24 29 1017.2 1016.7 0.2
09/12:00am 22.2 16.7 18.0 77 2.6 SE 44 52 24 28 1017.3 1016.8 0.2
 
Date/Time
EST
Temp
°C
App
Temp
°C
Dew
Point
°C
Rel
Hum
%
Delta-T
°C
Wind Press
QNH
hPa
Press
MSL
hPa
Rain since
9am
mm
Dir  Spd
km/h
Gust
km/h
Spd
kts
Gust
kts
08/11:30pm 22.2 17.9 18.6 80 2.3 SE 39 44 21 24 1018.0 1017.5 0.2
08/11:00pm 22.1 17.5 17.9 77 2.6 SE 39 44 21 24 1018.3 1017.8 0.2
08/10:30pm 21.9 17.1 18.3 80 2.3 SE 41 46 22 25 1018.4 1017.9 0.2
08/10:00pm 22.0 16.6 18.4 80 2.3 ESE 44 50 24 27 1018.7 1018.2 0.2
08/09:30pm 22.1 17.9 18.9 82 2.0 SE 39 46 21 25 1018.8 1018.3 0.2
08/09:00pm 22.0 17.1 18.2 79 2.4 ESE 41 48 22 26 1018.8 1018.3 0.2
08/08:30pm 22.1 17.4 18.7 81 2.1 ESE 41 50 22 27 1018.6 1018.1 0.2
08/08:00pm 22.0 16.9 18.6 81 2.1 ESE 43 46 23 25 1018.6 1018.1 0.2
08/07:30pm 21.7 18.3 19.1 85 1.7 ESE 35 41 19 22 1018.6 1018.1 0.2
08/07:00pm 21.7 16.5 18.7 83 1.9 ESE 44 50 24 27 1018.2 1017.7 0.2
08/06:30pm 21.1 16.9 19.0 88 1.3 ESE 39 50 21 27 1018.1 1017.6 0.2
08/06:00pm 22.0 17.8 19.0 83 1.9 SE 39 46 21 25 1018.0 1017.5 0.0
08/05:30pm 22.0 18.3 18.4 80 2.3 ESE 35 41 19 22 1017.7 1017.2 0.0
08/05:00pm 22.0 17.5 18.2 79 2.4 ESE 39 44 21 24 1017.4 1016.9 0.0
08/04:30pm 21.0 18.8 18.8 87 1.4 SE 28 35 15 19 1017.3 1016.8 0.0
08/04:00pm 22.2 18.2 18.6 80 2.3 SE 37 57 20 31 1017.2 1016.7 0.0
08/03:59pm 22.7 19.0 18.3 76 2.8 SE 35 56 19 30 1017.3 1016.8 0.0
08/03:30pm 22.5 19.3 18.5 78 2.5 SE 33 39 18 21 1017.1 1016.6 0.0
08/03:00pm 22.8 19.1 18.3 76 2.8 ESE 35 46 19 25 1017.2 1016.7 0.0
08/02:30pm 22.9 17.7 17.4 71 3.4 ESE 41 48 22 26 1017.3 1016.8 0.0
08/02:00pm 22.8 18.0 17.5 72 3.3 ESE 39 46 21 25 1017.4 1016.9 0.0
08/01:30pm 22.6 17.0 17.5 73 3.2 ESE 43 50 23 27 1017.9 1017.4 0.0
08/01:00pm 22.3 17.2 18.7 80 2.3 ESE 43 50 23 27 1018.2 1017.7 0.0
08/12:30pm 21.8 16.3 19.0 84 1.8 ESE 46 54 25 29 1017.9 1017.4 0.0
08/12:00pm 22.0 16.6 18.4 80 2.3 ESE 44 50 24 27 1017.8 1017.3 0.0
08/11:30am 22.6 17.2 18.4 77 2.6 ESE 44 54 24 29 1018.3 1017.8 0.0
08/11:00am 22.6 17.1 18.2 76 2.8 ESE 44 52 24 28 1018.4 1017.9 0.0
08/10:30am 22.8 18.1 18.6 77 2.7 SE 41 48 22 26 1018.9 1018.4 0.0
08/10:00am 22.6 17.0 17.9 75 2.9 ESE 44 52 24 28 1019.0 1018.5 0.0
08/09:30am 22.5 16.2 17.2 72 3.3 ESE 46 56 25 30 1018.8 1018.3 0.0
08/09:00am 22.4 16.5 18.0 76 2.7 ESE 46 54 25 29 1018.5 1018.0 0.2
08/08:30am 22.8 16.7 17.7 73 3.2 ESE 46 54 25 29 1018.8 1018.3 0.2
08/08:00am 22.9 16.4 16.7 68 3.8 ESE 46 57 25 31 1018.7 1018.2 0.2
08/07:30am 22.7 16.3 16.0 66 4.1 ESE 44 54 24 29 1018.6 1018.1 0.2
08/07:00am 22.4 15.8 16.4 69 3.7 ESE 46 54 25 29 1018.3 1017.8 0.2
08/06:30am 22.3 16.2 17.7 75 2.9 ESE 46 54 25 29 1018.2 1017.7 0.2
08/06:00am 22.2 16.0 17.3 74 3.0 ESE 46 54 25 29 1017.9 1017.4 0.2
08/05:30am 22.1 15.3 16.8 72 3.2 ESE 48 57 26 31 1017.5 1017.0 0.2
08/05:00am 22.2 16.4 16.9 72 3.2 ESE 43 52 23 28 1017.4 1016.9 0.2
08/04:30am 22.1 15.1 17.2 74 3.0 ESE 50 56 27 30 1017.0 1016.5 0.2
08/04:00am 22.1 15.4 17.0 73 3.1 ESE 48 56 26 30 1016.8 1016.3 0.2
08/03:30am 21.7 13.8 16.0 70 3.4 ESE 52 63 28 34 1016.9 1016.4 0.2
08/03:00am 21.7 14.3 17.3 76 2.7 ESE 52 63 28 34 1016.5 1016.0 0.0
08/02:30am 22.2 15.4 16.7 71 3.4 ESE 48 56 26 30 1016.9 1016.4 0.0
08/02:00am 22.2 16.2 16.9 72 3.2 ESE 44 50 24 27 1017.3 1016.8 0.0
08/01:30am 22.1 14.1 16.6 71 3.4 ESE 54 59 29 32 1017.1 1016.6 0.0
08/01:00am 22.0 14.4 16.7 72 3.2 ESE 52 59 28 32 1017.2 1016.7 0.0
08/12:30am 22.2 14.2 17.6 75 2.9 ESE 56 61 30 33 1017.3 1016.8 0.0
08/12:00am 21.9 14.4 17.9 78 2.5 SE 54 61 29 33 1017.5 1017.0 0.0
 
Date/Time
EST
Temp
°C
App
Temp
°C
Dew
Point
°C
Rel
Hum
%
Delta-T
°C
Wind Press
QNH
hPa
Press
MSL
hPa
Rain since
9am
mm
Dir  Spd
km/h
Gust
km/h
Spd
kts
Gust
kts
07/11:30pm 22.3 15.1 17.7 75 2.9 ESE 52 61 28 33 1018.1 1017.6 0.0
07/11:00pm 22.3 14.3 17.7 75 2.9 ESE 56 63 30 34 1018.3 1017.8 0.0
07/10:30pm 21.6 15.9 18.6 83 1.9 ESE 46 56 25 30 1018.8 1018.3 0.0
07/10:00pm 22.0 15.4 18.2 79 2.4 ESE 50 59 27 32 1019.1 1018.6 0.0
07/09:30pm 21.7 16.2 18.9 84 1.8 ESE 46 54 25 29 1019.1 1018.6 0.0
07/09:00pm 20.4 12.7 18.2 87 1.4 SE 56 65 30 35 1018.7 1018.2 0.0

Other Formats:

Comma delimited format used in spreadsheet applications
http://www.bom.gov.au/fwo/IDQ60801/IDQ60801.94584.axf

JavaScript Object Notation format (JSON) in row-major order
http://www.bom.gov.au/fwo/IDQ60801/IDQ60801.94584.json